Time;durP1;ratioP1;P1;durP2;ratioP2;P2;SDS_P1;SDS_P2;PMS_P1;PMS_P2;Temp;Humidity;BMP_temperature;BMP_pressure;BME280_temperature;BME280_humidity;BME280_pressure;Samples;Min_cycle;Max_cycle;Signal;HPM_P1;HPM_P2
2023/11/16 00:01:41;;;;;;;9.90;6.30;;;;;;;8.05;100.00;100180.38;178722;1251;60095;-89
2023/11/16 00:05:45;;;;;;;8.80;6.10;;;;;;;8.13;100.00;100175.41;178424;1254;45966;-88
2023/11/16 00:09:50;;;;;;;8.80;5.90;;;;;;;8.14;100.00;100176.16;178550;1253;46056;-86
2023/11/16 00:13:53;;;;;;;13.10;7.30;;;;;;;8.17;100.00;100179.91;178469;1251;45836;-86
2023/11/16 00:18:03;;;;;;;8.40;6.30;;;;;;;8.20;100.00;100178.77;177925;1251;45961;-86
2023/11/16 00:22:08;;;;;;;8.60;6.00;;;;;;;8.29;100.00;100177.77;178661;1253;59394;-84
2023/11/16 00:26:14;;;;;;;12.60;7.50;;;;;;;8.31;100.00;100182.25;178197;1250;46014;-89
2023/11/16 00:30:17;;;;;;;8.90;7.00;;;;;;;8.41;100.00;100182.55;178677;1251;45996;-86
2023/11/16 00:34:21;;;;;;;6.90;4.80;;;;;;;8.55;100.00;100179.46;178680;1250;46120;-86
2023/11/16 00:38:26;;;;;;;10.80;5.70;;;;;;;8.68;100.00;100177.95;178418;1251;45957;-89
2023/11/16 00:42:30;;;;;;;5.40;4.60;;;;;;;8.63;100.00;100182.88;178465;1251;59311;-85
2023/11/16 00:46:36;;;;;;;8.30;5.00;;;;;;;8.52;100.00;100191.49;178735;1251;46137;-87
2023/11/16 00:50:39;;;;;;;;;;;;;;;8.45;100.00;100193.21;178254;1251;45936;-86
2023/11/16 00:54:43;;;;;;;5.10;3.90;;;;;;;8.39;100.00;100189.08;178653;1251;45749;-87
2023/11/16 00:58:47;;;;;;;5.80;4.10;;;;;;;8.36;100.00;100190.36;178345;1251;46137;-88
2023/11/16 01:02:51;;;;;;;4.80;4.20;;;;;;;8.46;100.00;100180.81;178578;1250;58251;-87
2023/11/16 01:06:56;;;;;;;6.80;4.50;;;;;;;8.62;100.00;100183.14;178885;1251;46110;-87
2023/11/16 01:11:04;;;;;;;6.80;4.70;;;;;;;8.60;100.00;100188.40;178373;1250;46083;-88
2023/11/16 01:15:10;;;;;;;8.40;5.60;;;;;;;8.64;100.00;100193.12;178582;1251;46076;-87
2023/11/16 01:19:21;;;;;;;6.00;4.00;;;;;;;8.64;100.00;100184.98;178244;1251;46021;-88
2023/11/16 01:23:25;;;;;;;5.70;4.00;;;;;;;8.52;100.00;100177.38;178587;1250;59208;-88
2023/11/16 01:27:30;;;;;;;8.10;4.80;;;;;;;8.51;100.00;100181.86;178991;1250;45931;-88
2023/11/16 01:31:34;;;;;;;7.50;5.20;;;;;;;8.51;100.00;100178.47;178596;1251;46149;-88
2023/11/16 01:35:41;;;;;;;2.60;2.40;;;;;;;8.51;100.00;100179.94;179299;1251;46018;-85
2023/11/16 01:39:44;;;;;;;7.60;3.90;;;;;;;8.53;100.00;100170.58;178571;1251;46036;-86
2023/11/16 01:43:47;;;;;;;4.80;4.20;;;;;;;8.58;100.00;100173.21;178550;1251;59141;-85
2023/11/16 01:47:51;;;;;;;4.80;3.50;;;;;;;8.60;100.00;100179.42;177976;1251;44299;-88
2023/11/16 01:51:57;;;;;;;6.30;3.80;;;;;;;8.63;100.00;100182.72;178258;1250;45992;-87
2023/11/16 01:56:02;;;;;;;9.10;5.10;;;;;;;8.62;100.00;100174.17;178318;1253;46370;-88
2023/11/16 02:00:06;;;;;;;8.10;6.20;;;;;;;8.58;100.00;100166.80;178508;1251;46044;-86
2023/11/16 02:04:10;;;;;;;6.40;5.20;;;;;;;8.60;100.00;100167.36;178693;1251;57752;-87
2023/11/16 02:08:14;;;;;;;6.60;3.60;;;;;;;8.65;100.00;100165.58;178686;1250;46533;-87
2023/11/16 02:12:18;;;;;;;3.60;2.70;;;;;;;8.54;100.00;100167.47;178438;1250;45961;-88
2023/11/16 02:16:21;;;;;;;5.00;3.60;;;;;;;8.50;100.00;100168.31;178191;1251;46162;-87
2023/11/16 02:20:25;;;;;;;5.10;3.20;;;;;;;8.52;100.00;100169.77;178523;1250;45969;-88
2023/11/16 02:24:28;;;;;;;5.70;3.40;;;;;;;8.56;100.00;100168.03;178331;1251;59639;-86
2023/11/16 02:28:32;;;;;;;6.40;4.70;;;;;;;8.55;100.00;100162.27;179186;1251;46078;-86
2023/11/16 02:32:36;;;;;;;7.20;5.30;;;;;;;8.53;100.00;100164.17;178708;1250;46082;-87
2023/11/16 02:36:39;;;;;;;9.10;6.80;;;;;;;8.52;100.00;100169.56;178670;1250;46219;-85
2023/11/16 02:40:42;;;;;;;8.70;5.20;;;;;;;8.54;100.00;100171.39;179174;1253;45961;-86
2023/11/16 02:44:49;;;;;;;7.60;5.10;;;;;;;8.56;100.00;100167.55;178195;1251;59283;-88
2023/11/16 02:48:53;;;;;;;;;;;;;;;8.53;100.00;100163.98;178296;1254;45967;-85
2023/11/16 02:52:56;;;;;;;10.00;5.80;;;;;;;8.54;100.00;100161.99;178517;1253;45784;-88
2023/11/16 02:57:00;;;;;;;11.40;7.80;;;;;;;8.53;100.00;100162.42;178203;1250;46165;-87
2023/11/16 03:01:03;;;;;;;10.00;5.80;;;;;;;8.53;100.00;100161.00;178303;1250;46005;-86
2023/11/16 03:05:12;;;;;;;8.90;6.50;;;;;;;8.54;100.00;100157.24;178450;1250;60147;-89
2023/11/16 03:09:16;;;;;;;10.90;6.60;;;;;;;8.54;100.00;100151.92;178253;1251;45925;-89
2023/11/16 03:13:21;;;;;;;7.60;4.30;;;;;;;8.52;100.00;100153.34;178440;1251;46092;-88
2023/11/16 03:17:25;;;;;;;6.70;4.80;;;;;;;8.50;100.00;100157.17;178859;1250;46619;-87
2023/11/16 03:21:28;;;;;;;6.10;5.30;;;;;;;8.49;100.00;100152.52;179323;1250;46031;-85
2023/11/16 03:25:33;;;;;;;5.40;4.70;;;;;;;8.43;100.00;100157.67;178666;1251;59523;-88
2023/11/16 03:29:38;;;;;;;5.20;3.70;;;;;;;8.33;100.00;100159.79;178758;1250;45951;-86
2023/11/16 03:33:45;;;;;;;5.20;4.30;;;;;;;8.22;100.00;100158.71;178768;1250;46089;-88
2023/11/16 03:37:49;;;;;;;9.20;3.70;;;;;;;8.17;100.00;100156.95;178365;1251;46128;-86
2023/11/16 03:41:53;;;;;;;4.20;3.70;;;;;;;8.14;100.00;100160.29;178896;1251;46054;-88
2023/11/16 03:45:57;;;;;;;6.40;3.20;;;;;;;8.19;100.00;100165.61;178788;1250;58281;-87
2023/11/16 03:50:04;;;;;;;9.10;3.80;;;;;;;8.17;100.00;100164.90;178176;1251;45975;-86
2023/11/16 03:54:07;;;;;;;4.90;3.30;;;;;;;8.14;100.00;100161.90;179433;1250;45995;-87
2023/11/16 03:58:10;;;;;;;3.70;3.40;;;;;;;8.16;100.00;100156.13;178416;1254;46028;-87
2023/11/16 04:02:13;;;;;;;2.70;2.50;;;;;;;8.17;100.00;100150.93;178392;1250;45980;-87
2023/11/16 04:06:18;;;;;;;4.90;3.00;;;;;;;8.18;100.00;100152.98;178317;1253;57972;-85
2023/11/16 04:10:22;;;;;;;4.70;3.50;;;;;;;8.17;100.00;100153.42;178062;1251;45973;-87
2023/11/16 04:14:25;;;;;;;5.40;3.50;;;;;;;8.14;100.00;100152.01;178038;1251;46613;-83
2023/11/16 04:18:28;;;;;;;24.20;3.70;;;;;;;8.17;100.00;100151.66;178360;1251;46077;-88
2023/11/16 04:22:36;;;;;;;7.50;4.00;;;;;;;8.18;100.00;100151.40;178861;1250;44699;-83
2023/11/16 04:26:40;;;;;;;6.10;4.00;;;;;;;8.19;100.00;100147.05;180826;1249;58381;-87
2023/11/16 04:30:43;;;;;;;6.20;3.70;;;;;;;8.33;100.00;100140.76;180072;1251;46082;-86
2023/11/16 04:34:47;;;;;;;5.00;3.70;;;;;;;8.41;100.00;100135.17;178257;1250;45985;-86
2023/11/16 04:38:51;;;;;;;5.90;4.20;;;;;;;8.50;100.00;100138.25;178875;1251;45979;-87
2023/11/16 04:42:55;;;;;;;3.50;2.60;;;;;;;8.60;100.00;100130.83;178563;1251;46076;-88
2023/11/16 04:46:59;;;;;;;7.10;3.40;;;;;;;8.66;100.00;100130.55;178493;1254;58238;-88
2023/11/16 04:51:03;;;;;;;5.30;4.10;;;;;;;8.73;100.00;100132.10;178227;1251;46108;-86
2023/11/16 04:55:07;;;;;;;3.80;3.00;;;;;;;8.80;100.00;100134.74;178259;1251;47414;-88
2023/11/16 04:59:15;;;;;;;5.00;2.80;;;;;;;8.83;100.00;100136.10;178531;1251;47502;-86
2023/11/16 05:03:21;;;;;;;10.60;3.10;;;;;;;8.88;100.00;100134.13;178506;1250;46163;-86
2023/11/16 05:07:25;;;;;;;3.90;3.30;;;;;;;8.95;100.00;100135.00;178811;1251;57194;-87
2023/11/16 05:11:29;;;;;;;11.90;3.10;;;;;;;9.05;100.00;100128.63;179485;1250;46046;-86
2023/11/16 05:15:32;;;;;;;6.20;3.00;;;;;;;9.06;100.00;100126.45;178819;1251;46095;-85
2023/11/16 05:19:35;;;;;;;4.40;2.40;;;;;;;9.05;100.00;100126.16;178368;1253;44271;-87
2023/11/16 05:23:41;;;;;;;9.50;3.20;;;;;;;9.05;100.00;100117.67;178163;1250;46157;-86
2023/11/16 05:27:44;;;;;;;4.80;2.40;;;;;;;8.93;100.00;100116.27;178551;1250;58221;-88
2023/11/16 05:31:48;;;;;;;7.30;2.90;;;;;;;8.81;100.00;100120.19;178703;1251;46120;-86
2023/11/16 05:35:54;;;;;;;3.30;2.40;;;;;;;8.68;100.00;100121.85;178094;1253;45980;-87
2023/11/16 05:40:03;;;;;;;5.20;3.10;;;;;;;8.58;100.00;100122.09;178654;1250;46050;-86
2023/11/16 05:44:07;;;;;;;7.20;2.90;;;;;;;8.48;100.00;100125.49;178317;1253;46076;-80
2023/11/16 05:48:12;;;;;;;3.50;2.30;;;;;;;8.41;100.00;100130.60;178140;1250;58224;-87
2023/11/16 05:52:16;;;;;;;3.10;1.90;;;;;;;8.31;100.00;100129.43;177932;1251;46172;-85
2023/11/16 05:56:20;;;;;;;2.60;1.30;;;;;;;8.18;100.00;100125.92;178176;1251;45999;-84
2023/11/16 06:00:24;;;;;;;2.10;1.50;;;;;;;8.07;100.00;100131.86;178411;1249;46290;-86
2023/11/16 06:04:27;;;;;;;12.50;2.50;;;;;;;8.04;100.00;100125.19;178435;1253;46053;-86
2023/11/16 06:08:31;;;;;;;5.80;3.40;;;;;;;8.03;100.00;100124.02;178667;1250;58017;-88
2023/11/16 06:12:35;;;;;;;9.80;2.40;;;;;;;7.99;100.00;100119.36;178112;1251;46050;-89
2023/11/16 06:16:44;;;;;;;4.00;2.10;;;;;;;7.98;100.00;100116.48;178065;1250;45961;-88
2023/11/16 06:20:47;;;;;;;6.20;2.40;;;;;;;7.96;100.00;100118.36;177837;1253;46050;-86
2023/11/16 06:24:51;;;;;;;6.10;2.00;;;;;;;7.91;100.00;100114.88;178052;1250;46083;-90
2023/11/16 06:28:54;;;;;;;13.40;3.70;;;;;;;7.83;100.00;100119.61;178245;1251;58708;-88
2023/11/16 06:32:57;;;;;;;3.80;2.50;;;;;;;7.77;100.00;100121.86;178252;1251;46079;-85
2023/11/16 06:37:00;;;;;;;4.60;1.90;;;;;;;7.71;100.00;100117.19;178236;1252;45910;-88
2023/11/16 06:41:05;;;;;;;6.30;2.20;;;;;;;7.66;100.00;100116.98;178327;1251;46002;-87
2023/11/16 06:45:11;;;;;;;2.20;1.80;;;;;;;7.64;100.00;100112.90;178473;1251;46021;-87
2023/11/16 06:49:16;;;;;;;2.30;1.90;;;;;;;7.66;100.00;100111.92;178204;1251;59938;-86
2023/11/16 06:53:21;;;;;;;1.80;1.30;;;;;;;7.72;100.00;100112.70;178205;1251;45992;-85
2023/11/16 06:57:27;;;;;;;5.40;3.60;;;;;;;7.80;100.00;100115.11;178067;1253;198718;-87
2023/11/16 07:01:35;;;;;;;20.60;10.30;;;;;;;7.86;100.00;100114.48;178806;1253;46204;-87
2023/11/16 07:05:38;;;;;;;4.00;2.50;;;;;;;7.89;100.00;100113.58;179218;1251;45890;-86
2023/11/16 07:09:49;;;;;;;5.10;3.30;;;;;;;7.91;100.00;100110.96;178329;1251;59583;-88
2023/11/16 07:13:53;;;;;;;3.10;2.40;;;;;;;7.95;100.00;100111.38;178159;1251;46083;-85
2023/11/16 07:17:57;;;;;;;4.60;2.60;;;;;;;7.98;100.00;100110.29;178574;1251;46420;-87
2023/11/16 07:22:00;;;;;;;3.50;2.50;;;;;;;8.01;100.00;100110.04;178407;1251;45942;-89
2023/11/16 07:26:08;;;;;;;4.10;2.80;;;;;;;8.04;100.00;100109.64;178900;1251;45963;-88
2023/11/16 07:30:12;;;;;;;10.70;3.90;;;;;;;8.07;100.00;100112.08;179207;1251;59549;-86
2023/11/16 07:34:18;;;;;;;3.90;2.50;;;;;;;8.10;100.00;100106.54;179181;1251;46053;-87
2023/11/16 07:38:21;;;;;;;6.70;3.10;;;;;;;8.19;100.00;100110.48;178401;1251;46079;-86
2023/11/16 07:42:25;;;;;;;6.90;2.80;;;;;;;8.33;100.00;100106.96;179441;1250;45989;-88
2023/11/16 07:46:28;;;;;;;4.60;2.70;;;;;;;8.54;100.00;100109.67;179426;1253;44018;-86
2023/11/16 07:50:32;;;;;;;3.60;2.20;;;;;;;8.74;100.00;100113.49;179612;1249;59356;-87
2023/11/16 07:54:44;;;;;;;4.00;2.80;;;;;;;8.92;100.00;100106.61;179691;1250;46002;-84
2023/11/16 07:58:52;;;;;;;5.40;3.00;;;;;;;9.11;100.00;100097.75;178518;1251;45996;-87
2023/11/16 08:07:23;;;;;;;7.60;3.50;;;;;;;9.37;100.00;100088.10;179432;1250;46025;-88
2023/11/16 08:11:26;;;;;;;5.90;3.20;;;;;;;9.47;100.00;100083.77;178666;1250;59331;-87
2023/11/16 08:15:31;;;;;;;7.40;2.80;;;;;;;9.56;100.00;100084.28;179154;1251;46230;-87
2023/11/16 08:19:36;;;;;;;5.90;3.40;;;;;;;9.63;100.00;100081.60;178589;1251;45896;-89
2023/11/16 08:23:45;;;;;;;6.60;3.90;;;;;;;9.79;100.00;100078.20;179000;1250;46274;-89
2023/11/16 08:27:55;;;;;;;4.90;3.00;;;;;;;9.90;100.00;100077.82;178513;1249;46095;-85
2023/11/16 08:32:00;;;;;;;8.70;4.00;;;;;;;10.00;100.00;100076.51;178383;1251;59489;-86
2023/11/16 08:36:04;;;;;;;3.80;3.20;;;;;;;10.13;100.00;100072.19;178355;1252;44643;-88
2023/11/16 08:40:08;;;;;;;9.80;3.20;;;;;;;10.25;100.00;100069.30;178559;1250;46002;-84
2023/11/16 08:44:12;;;;;;;10.80;3.00;;;;;;;10.34;100.00;100070.86;178846;1251;45992;-89
2023/11/16 08:48:30;;;;;;;7.10;2.70;;;;;;;10.44;100.00;100064.67;179034;1251;45957;-88
2023/11/16 08:52:35;;;;;;;6.10;3.90;;;;;;;10.53;100.00;100064.81;179271;1253;59572;-86
2023/11/16 08:56:39;;;;;;;5.00;3.10;;;;;;;10.55;99.96;100064.30;179558;1251;45983;-88
2023/11/16 09:00:47;;;;;;;;;;;;;;;10.56;99.88;100064.59;179738;1251;44157;-87
2023/11/16 09:04:54;;;;;;;4.50;3.00;;;;;;;10.68;100.00;100060.90;179612;1251;45726;-89
2023/11/16 09:09:09;;;;;;;4.10;2.90;;;;;;;10.77;99.96;100057.33;179661;1253;46075;-83
2023/11/16 09:13:13;;;;;;;3.70;3.00;;;;;;;10.88;99.49;100059.04;180110;1250;59103;-87
2023/11/16 09:17:18;;;;;;;9.40;4.00;;;;;;;11.01;99.03;100060.38;179881;1251;46082;-89
2023/11/16 09:22:15;;;;;;;6.40;3.60;;;;;;;11.08;98.20;100059.23;179915;1251;44968;-77
2023/11/16 09:26:23;;;;;;;7.80;3.50;;;;;;;11.21;97.98;100054.90;180659;1250;45029;-90
2023/11/16 09:30:27;;;;;;;6.60;3.10;;;;;;;11.31;97.93;100054.19;180622;1250;45197;-90
2023/11/16 09:34:31;;;;;;;3.40;3.10;;;;;;;11.51;99.08;100050.46;180776;1251;58327;-90
2023/11/16 09:38:34;;;;;;;4.10;2.90;;;;;;;11.70;99.24;100045.59;181355;1250;45957;-90
2023/11/16 09:42:39;;;;;;;4.30;2.30;;;;;;;11.77;93.47;100038.08;180794;1253;46003;-87
2023/11/16 09:46:46;;;;;;;2.50;1.80;;;;;;;11.86;92.99;100036.40;180839;1252;45840;-89
2023/11/16 09:50:53;;;;;;;;;;;;;;;12.00;92.45;100036.32;180852;1252;47025;-90
2023/11/16 09:55:01;;;;;;;2.30;2.00;;;;;;;12.01;87.73;100026.14;181173;1252;59002;-88
2023/11/16 09:59:13;;;;;;;2.90;1.60;;;;;;;11.91;85.42;100018.48;180974;1253;45862;-87
2023/11/16 10:03:26;;;;;;;3.90;2.10;;;;;;;11.92;84.98;100011.65;180932;1255;45949;-91
2023/11/16 10:07:34;;;;;;;2.60;1.30;;;;;;;11.93;85.82;100004.94;181089;1253;44748;-88
2023/11/16 10:11:38;;;;;;;5.50;2.10;;;;;;;11.98;86.23;100007.41;181077;1254;45976;-88
2023/11/16 10:15:41;;;;;;;1.60;1.30;;;;;;;12.01;84.31;100003.41;181257;1251;58220;-87
2023/11/16 10:19:45;;;;;;;4.90;1.60;;;;;;;12.12;87.14;99997.91;181389;1253;45848;-89
2023/11/16 10:23:51;;;;;;;1.80;0.90;;;;;;;12.16;84.68;99997.17;181352;1253;45950;-88
2023/11/16 10:27:54;;;;;;;1.50;1.00;;;;;;;12.17;83.85;99992.02;181046;1254;45963;-89
2023/11/16 10:32:02;;;;;;;2.90;2.10;;;;;;;12.17;84.30;99989.86;180990;1253;46006;-91
2023/11/16 10:36:09;;;;;;;4.40;1.40;;;;;;;12.18;84.27;99990.23;180809;1254;59263;-85
2023/11/16 10:40:13;;;;;;;2.20;1.10;;;;;;;12.30;85.11;99978.66;181077;1250;45930;-92
2023/11/16 10:44:24;;;;;;;4.30;1.60;;;;;;;12.46;83.81;99966.16;181422;1251;44604;-85
2023/11/16 10:48:27;;;;;;;1.70;1.00;;;;;;;12.68;84.37;99951.43;181101;1251;44691;-83
2023/11/16 10:52:38;;;;;;;7.50;2.40;;;;;;;12.77;80.47;99935.83;180879;1251;45916;-88
2023/11/16 10:56:54;;;;;;;3.80;2.10;;;;;;;12.78;81.08;99936.77;180994;1250;59146;-82
2023/11/16 11:01:02;;;;;;;2.50;1.50;;;;;;;12.75;81.16;99941.39;180943;1251;45909;-87
2023/11/16 11:05:12;;;;;;;3.00;1.60;;;;;;;12.63;81.09;99935.56;180986;1250;45942;-87
2023/11/16 11:09:17;;;;;;;3.10;1.40;;;;;;;12.56;81.39;99937.80;181164;1251;46012;-87
2023/11/16 11:13:30;;;;;;;2.40;1.40;;;;;;;12.51;81.70;99936.17;180923;1251;44728;-90
2023/11/16 11:17:44;;;;;;;1.50;1.10;;;;;;;12.39;82.35;99927.71;181161;1250;59435;-87
2023/11/16 11:21:50;;;;;;;2.90;1.50;;;;;;;12.33;81.84;99924.92;181049;1251;44161;-82
2023/11/16 11:26:03;;;;;;;6.40;1.70;;;;;;;12.32;82.82;99920.70;181051;1251;45562;-87
2023/11/16 11:30:11;;;;;;;4.10;1.70;;;;;;;12.34;83.69;99910.36;181180;1250;45947;-86
2023/11/16 11:34:15;;;;;;;2.50;1.00;;;;;;;12.32;82.59;99905.39;181194;1251;45881;-87
2023/11/16 11:38:26;;;;;;;4.20;1.30;;;;;;;12.22;81.31;99903.55;181128;1251;58968;-90
2023/11/16 11:42:37;;;;;;;4.00;2.10;;;;;;;12.07;83.59;99891.77;180998;1251;46025;-89
2023/11/16 11:46:41;;;;;;;5.40;2.00;;;;;;;11.96;83.48;99889.88;181395;1251;45954;-89
2023/11/16 11:50:45;;;;;;;2.30;1.70;;;;;;;11.91;84.20;99889.67;180864;1253;45935;-90
2023/11/16 11:54:48;;;;;;;3.20;1.50;;;;;;;11.86;84.97;99882.13;181148;1251;45967;-82
2023/11/16 11:58:53;;;;;;;1.80;1.40;;;;;;;11.92;86.75;99883.21;180959;1253;59573;-89
2023/11/16 12:02:56;;;;;;;3.50;1.50;;;;;;;11.94;85.49;99884.95;181018;1251;45978;-88
2023/11/16 12:07:07;;;;;;;5.30;2.10;;;;;;;11.90;83.11;99875.74;181015;1251;44575;-89
2023/11/16 12:11:18;;;;;;;10.10;2.20;;;;;;;11.83;84.25;99869.61;180861;1251;44475;-88
2023/11/16 12:15:30;;;;;;;2.70;1.80;;;;;;;11.81;84.30;99865.56;180712;1250;45987;-89
2023/11/16 12:19:48;;;;;;;5.00;2.30;;;;;;;11.76;84.14;99870.92;180976;1251;58411;-86
2023/11/16 12:23:57;;;;;;;4.70;2.00;;;;;;;11.85;85.96;99868.20;180866;1250;46136;-88
2023/11/16 12:28:27;;;;;;;7.20;1.60;;;;;;;11.93;86.57;99863.38;180980;1251;45909;-89
2023/11/16 12:37:00;;;;;;;3.60;1.40;;;;;;;11.97;83.83;99847.02;179918;1260;44732;-88
2023/11/16 12:41:08;;;;;;;5.10;1.70;;;;;;;11.97;85.15;99841.35;179846;1258;58577;-89
2023/11/16 12:45:13;;;;;;;3.80;1.30;;;;;;;11.97;84.77;99832.61;179851;1257;45994;-88
2023/11/16 12:49:18;;;;;;;2.90;1.50;;;;;;;11.95;84.22;99829.91;179774;1259;46119;-87
2023/11/16 12:53:21;;;;;;;3.70;1.90;;;;;;;11.92;84.42;99824.88;179745;1260;44717;-90
2023/11/16 12:57:25;;;;;;;5.20;1.60;;;;;;;11.92;85.59;99830.47;179753;1259;45256;-86
2023/11/16 13:01:32;;;;;;;4.00;1.50;;;;;;;11.82;83.38;99831.15;179663;1259;59410;-87
2023/11/16 13:05:35;;;;;;;2.90;1.30;;;;;;;11.76;83.66;99830.12;180056;1259;45884;-89
2023/11/16 13:09:39;;;;;;;3.60;1.30;;;;;;;11.69;84.75;99829.53;180002;1259;44557;-84
2023/11/16 13:13:57;;;;;;;2.00;1.80;;;;;;;11.66;85.71;99834.22;179647;1259;45998;-89
2023/11/16 13:18:04;;;;;;;2.20;1.40;;;;;;;11.60;86.04;99834.64;179542;1259;45915;-89
2023/11/16 13:32:41;;;;;;;4.70;1.80;;;;;;;11.56;85.96;99821.85;177053;1261;46046;-81
2023/11/16 13:36:45;;;;;;;2.00;1.40;;;;;;;11.52;85.45;99819.03;177042;1261;46418;-81
2023/11/16 13:40:49;;;;;;;6.10;2.60;;;;;;;11.45;85.27;99812.37;176135;1260;46127;-81
2023/11/16 13:44:52;;;;;;;4.10;1.70;;;;;;;11.38;86.04;99812.33;176198;1262;58273;-81
2023/11/16 13:48:55;;;;;;;2.30;2.10;;;;;;;11.24;88.01;99816.33;176292;1261;46288;-81
2023/11/16 13:52:58;;;;;;;13.60;7.70;;;;;;;11.19;89.34;99820.30;177223;1262;46149;-81
2023/11/16 13:57:01;;;;;;;7.40;6.00;;;;;;;11.26;90.15;99817.52;176431;1262;47021;-81
2023/11/16 14:01:04;;;;;;;9.80;6.10;;;;;;;11.20;92.14;99817.00;176058;1260;46093;-81
2023/11/16 14:05:11;;;;;;;9.40;5.50;;;;;;;11.17;92.88;99816.38;176735;1262;58399;-80
2023/11/16 14:09:20;;;;;;;5.90;3.90;;;;;;;11.12;93.99;99813.25;177020;1260;45972;-80
2023/11/16 14:13:25;;;;;;;6.10;3.60;;;;;;;10.89;94.82;99802.27;176087;1261;46123;-81
2023/11/16 14:17:28;;;;;;;7.90;5.70;;;;;;;10.83;94.76;99798.33;177405;1260;46093;-81
2023/11/16 14:21:32;;;;;;;12.30;6.10;;;;;;;10.73;95.64;99794.41;176081;1260;46149;-82
2023/11/16 14:25:38;;;;;;;14.90;9.80;;;;;;;10.61;96.22;99787.73;179560;1257;58240;-86
2023/11/16 14:29:51;;;;;;;10.90;9.70;;;;;;;10.45;97.34;99784.30;179404;1259;45837;-86
2023/11/16 14:33:55;;;;;;;9.70;6.80;;;;;;;10.33;98.74;99785.57;179423;1259;45538;-86
2023/11/16 14:37:58;;;;;;;8.00;6.50;;;;;;;10.23;99.80;99779.31;179531;1259;46455;-87
2023/11/16 14:42:02;;;;;;;12.30;7.10;;;;;;;10.12;100.00;99775.08;179301;1259;45898;-87
2023/11/16 14:46:06;;;;;;;10.90;6.10;;;;;;;10.00;100.00;99767.69;179232;1259;57969;-85
2023/11/16 14:50:10;;;;;;;8.70;5.90;;;;;;;9.84;100.00;99765.53;179152;1259;44639;-85
2023/11/16 14:54:14;;;;;;;12.30;8.40;;;;;;;9.65;100.00;99760.59;178946;1262;46147;-82
2023/11/16 14:58:19;;;;;;;18.70;14.20;;;;;;;9.50;100.00;99754.46;179012;1259;46014;-86
2023/11/16 15:02:23;;;;;;;17.50;12.60;;;;;;;9.35;100.00;99754.54;178930;1261;46089;-83
2023/11/16 15:06:26;;;;;;;23.90;15.10;;;;;;;9.11;100.00;99756.65;179029;1259;59176;-88
2023/11/16 15:10:37;;;;;;;41.70;30.90;;;;;;;8.98;100.00;99753.14;179594;1259;46094;-85
2023/11/16 15:14:42;;;;;;;62.70;42.30;;;;;;;8.87;100.00;99751.94;179446;1259;44799;-89
2023/11/16 15:18:48;;;;;;;51.70;37.90;;;;;;;8.72;100.00;99748.19;179365;1263;44355;-87
2023/11/16 15:22:57;;;;;;;55.60;39.70;;;;;;;8.61;100.00;99745.91;179152;1259;46084;-87
2023/11/16 15:27:02;;;;;;;58.00;42.00;;;;;;;8.58;100.00;99745.47;179258;1259;58247;-88
2023/11/16 15:31:08;;;;;;;198.60;124.00;;;;;;;8.59;100.00;99744.00;178935;1259;46067;-85
2023/11/16 15:35:12;;;;;;;189.10;113.70;;;;;;;8.63;100.00;99741.36;179215;1259;44244;-87
2023/11/16 15:39:17;;;;;;;169.40;114.00;;;;;;;8.68;100.00;99738.67;179012;1258;45972;-87
2023/11/16 15:43:22;;;;;;;176.30;110.70;;;;;;;8.74;100.00;99734.81;179153;1260;45211;-87
2023/11/16 15:47:27;;;;;;;160.70;102.40;;;;;;;8.74;100.00;99731.65;179277;1259;58417;-89
2023/11/16 15:51:32;;;;;;;105.10;59.50;;;;;;;8.60;100.00;99723.36;179117;1259;45633;-85
2023/11/16 15:55:37;;;;;;;30.40;20.30;;;;;;;8.37;100.00;99719.06;179241;1259;46024;-89
2023/11/16 15:59:41;;;;;;;44.20;31.90;;;;;;;8.14;100.00;99712.81;178918;1259;44973;-85
2023/11/16 16:03:48;;;;;;;49.70;31.90;;;;;;;7.94;100.00;99708.55;179251;1259;46227;-86
2023/11/16 16:07:52;;;;;;;40.20;24.60;;;;;;;7.84;100.00;99696.05;179013;1259;57974;-88
2023/11/16 16:11:55;;;;;;;42.80;29.50;;;;;;;7.76;100.00;99688.90;178975;1260;45724;-85
2023/11/16 16:16:00;;;;;;;45.10;29.10;;;;;;;7.62;100.00;99680.13;178867;1260;44581;-86
2023/11/16 16:20:04;;;;;;;44.70;28.50;;;;;;;7.54;100.00;99676.55;178712;1259;44640;-88
2023/11/16 16:24:07;;;;;;;46.20;33.20;;;;;;;7.50;100.00;99675.12;178749;1262;46102;-87
2023/11/16 16:28:11;;;;;;;75.40;41.10;;;;;;;7.48;100.00;99671.17;178755;1259;58019;-85
2023/11/16 16:32:14;;;;;;;63.40;43.30;;;;;;;7.44;100.00;99671.99;179343;1259;44761;-87
2023/11/16 16:36:18;;;;;;;63.20;37.50;;;;;;;7.36;100.00;99669.48;178829;1258;46151;-85
2023/11/16 16:40:21;;;;;;;48.20;29.30;;;;;;;7.34;100.00;99667.70;178899;1259;45995;-85
2023/11/16 16:44:26;;;;;;;38.60;24.00;;;;;;;7.29;100.00;99671.24;179026;1259;46112;-85
2023/11/16 16:48:30;;;;;;;33.90;24.50;;;;;;;7.32;100.00;99669.46;178726;1259;58217;-85
2023/11/16 16:52:33;;;;;;;40.60;26.60;;;;;;;7.36;100.00;99671.94;178951;1259;44228;-87
2023/11/16 16:56:37;;;;;;;34.70;23.80;;;;;;;7.46;100.00;99681.56;179020;1259;44527;-86
2023/11/16 17:00:41;;;;;;;32.10;19.60;;;;;;;7.58;100.00;99683.79;179033;1259;46020;-85
2023/11/16 17:04:46;;;;;;;23.10;15.40;;;;;;;7.75;100.00;99687.41;178992;1259;46090;-86
2023/11/16 17:08:49;;;;;;;12.00;8.70;;;;;;;7.93;100.00;99684.44;179123;1259;58017;-82
2023/11/16 17:12:55;;;;;;;10.00;6.00;;;;;;;8.05;100.00;99686.33;179719;1259;46123;-86
2023/11/16 17:16:59;;;;;;;9.80;6.00;;;;;;;8.16;100.00;99689.68;179053;1258;46136;-83
2023/11/16 17:21:07;;;;;;;12.80;8.00;;;;;;;8.15;100.00;99692.52;178931;1259;46041;-86
2023/11/16 17:25:11;;;;;;;12.30;8.30;;;;;;;8.17;100.00;99700.88;179211;1260;45994;-88
2023/11/16 17:29:16;;;;;;;20.80;11.70;;;;;;;8.22;100.00;99717.97;179088;1258;59319;-85
2023/11/16 17:33:30;;;;;;;17.10;11.60;;;;;;;8.26;100.00;99723.63;179123;1260;44620;-82
2023/11/16 17:37:38;;;;;;;18.40;11.50;;;;;;;8.30;100.00;99722.98;179414;1259;46064;-86
2023/11/16 17:41:46;;;;;;;17.10;10.40;;;;;;;8.38;100.00;99724.37;179059;1259;46014;-88
2023/11/16 17:45:51;;;;;;;17.90;12.60;;;;;;;8.28;100.00;99727.91;179067;1259;46145;-84
2023/11/16 17:49:57;;;;;;;25.70;15.10;;;;;;;8.07;100.00;99736.08;178966;1259;59899;-83
2023/11/16 17:54:03;;;;;;;37.20;24.70;;;;;;;8.08;100.00;99732.81;179087;1259;46551;-86
2023/11/16 17:58:07;;;;;;;123.80;69.70;;;;;;;8.05;100.00;99729.02;178918;1259;45991;-87
2023/11/16 18:02:13;;;;;;;157.60;94.90;;;;;;;8.04;100.00;99720.83;178728;1259;46097;-87
2023/11/16 18:06:21;;;;;;;115.20;60.70;;;;;;;8.15;100.00;99709.34;178683;1259;44200;-84
2023/11/16 18:10:24;;;;;;;87.00;46.20;;;;;;;8.30;100.00;99712.50;178514;1264;57497;-85
2023/11/16 18:14:28;;;;;;;66.90;40.00;;;;;;;8.43;100.00;99710.91;178110;1259;46014;-82
2023/11/16 18:18:32;;;;;;;21.60;16.60;;;;;;;8.41;100.00;99706.17;177911;1259;46201;-86
2023/11/16 18:22:37;;;;;;;25.30;17.50;;;;;;;8.37;100.00;99698.54;178131;1259;46094;-88
2023/11/16 18:26:41;;;;;;;29.00;18.20;;;;;;;8.36;100.00;99695.23;179723;1262;46130;-86
2023/11/16 18:30:46;;;;;;;20.90;14.50;;;;;;;8.42;100.00;99690.70;178166;1259;57905;-86
2023/11/16 18:34:50;;;;;;;24.60;14.30;;;;;;;8.50;100.00;99682.86;178344;1259;46094;-86
2023/11/16 18:38:53;;;;;;;25.90;15.30;;;;;;;8.58;100.00;99683.41;178789;1259;44592;-87
2023/11/16 18:42:59;;;;;;;28.10;18.50;;;;;;;8.66;100.00;99680.61;178891;1259;45858;-85
2023/11/16 18:47:02;;;;;;;32.90;17.60;;;;;;;8.72;100.00;99676.42;179019;1259;46019;-85
2023/11/16 18:51:06;;;;;;;30.40;19.00;;;;;;;8.76;100.00;99673.80;178411;1258;61190;-85
2023/11/16 18:55:10;;;;;;;29.60;17.00;;;;;;;8.78;100.00;99672.80;178240;1259;406442;-89
2023/11/16 18:59:14;;;;;;;30.80;17.80;;;;;;;8.77;100.00;99669.00;178325;1259;46012;-89
2023/11/16 19:03:19;;;;;;;27.00;16.40;;;;;;;8.63;100.00;99672.04;178453;1263;46215;-85
2023/11/16 19:07:27;;;;;;;38.50;21.50;;;;;;;8.41;100.00;99664.00;178354;1259;45244;-87